Time;durP1;ratioP1;P1;durP2;ratioP2;P2;SDS_P1;SDS_P2;PMS_P1;PMS_P2;Temp;Humidity;BMP_temperature;BMP_pressure;BME280_temperature;BME280_humidity;BME280_pressure;Samples;Min_cycle;Max_cycle;Signal;HPM_P1;HPM_P2
2021/03/15 00:00:08;;;;;;;12.43;4.77;;;6.80;93.10;;;;;;5095017;28;20096;-84
2021/03/15 00:02:34;;;;;;;14.67;4.43;;;6.80;93.20;;;;;;5076355;28;20024;-84
2021/03/15 00:04:59;;;;;;;16.17;4.23;;;6.80;93.40;;;;;;5085492;28;20040;-84
2021/03/15 00:07:25;;;;;;;13.03;4.40;;;6.80;93.60;;;;;;5065686;28;20108;-84
2021/03/15 00:09:50;;;;;;;9.87;3.97;;;6.80;93.80;;;;;;5066836;28;20040;-84
2021/03/15 00:12:16;;;;;;;16.00;4.87;;;6.90;94.00;;;;;;5085526;28;20063;-84
2021/03/15 00:14:45;;;;;;;21.93;5.73;;;6.80;94.10;;;;;;5067231;28;20100;-83
2021/03/15 00:17:10;;;;;;;16.02;5.63;;;6.80;94.30;;;;;;5066358;28;20148;-84
2021/03/15 00:19:36;;;;;;;14.37;5.27;;;6.80;94.50;;;;;;5066186;28;20048;-84
2021/03/15 00:22:02;;;;;;;12.37;4.77;;;6.80;94.60;;;;;;5067016;28;20028;-84
2021/03/15 00:24:27;;;;;;;13.23;5.77;;;6.80;94.70;;;;;;5066028;28;20038;-84
2021/03/15 00:26:53;;;;;;;15.30;5.70;;;6.90;95.00;;;;;;5084507;28;20345;-85
2021/03/15 00:29:21;;;;;;;20.30;7.43;;;6.70;95.10;;;;;;5066182;28;20050;-84
2021/03/15 00:31:47;;;;;;;16.70;6.40;;;6.70;95.40;;;;;;5083976;28;20027;-84
2021/03/15 00:34:13;;;;;;;16.73;6.30;;;6.70;95.70;;;;;;5065683;28;20073;-84
2021/03/15 00:36:39;;;;;;;17.67;7.67;;;6.70;95.70;;;;;;5083674;28;20036;-84
2021/03/15 00:39:04;;;;;;;17.73;6.87;;;6.70;95.80;;;;;;5065943;28;20036;-84
2021/03/15 00:41:30;;;;;;;18.10;6.93;;;6.60;95.70;;;;;;5083424;28;20033;-84
2021/03/15 00:43:56;;;;;;;15.63;6.43;;;6.60;95.80;;;;;;5066539;28;20092;-84
2021/03/15 00:46:22;;;;;;;17.77;6.63;;;6.60;95.80;;;;;;5082663;28;20024;-84
2021/03/15 00:48:47;;;;;;;14.60;5.10;;;6.60;96.00;;;;;;5083220;28;20029;-85
2021/03/15 00:51:13;;;;;;;16.43;5.33;;;6.60;96.00;;;;;;5066065;28;20024;-85
2021/03/15 00:53:38;;;;;;;15.43;5.63;;;6.60;95.90;;;;;;5084116;28;20477;-85
2021/03/15 00:56:04;;;;;;;14.77;5.60;;;6.60;96.10;;;;;;5083454;28;20104;-84
2021/03/15 00:58:30;;;;;;;17.20;5.30;;;6.60;96.20;;;;;;5066894;28;20142;-84
2021/03/15 01:00:56;;;;;;;18.43;5.87;;;6.50;96.40;;;;;;5082550;28;20407;-84
2021/03/15 01:03:22;;;;;;;14.10;5.10;;;6.50;96.70;;;;;;5064838;28;20048;-87
2021/03/15 01:06:17;;;;;;;16.50;5.90;;;6.60;96.80;;;;;;4960030;28;20062;-89
2021/03/15 01:08:48;;;;;;;15.10;5.80;;;6.60;96.90;;;;;;5067018;28;20110;-87
2021/03/15 01:11:14;;;;;;;15.03;6.47;;;6.60;97.00;;;;;;5077269;28;20092;-85
2021/03/15 01:13:40;;;;;;;14.83;5.70;;;6.60;97.00;;;;;;5081980;28;20078;-82
2021/03/15 01:16:06;;;;;;;14.40;6.43;;;6.60;97.10;;;;;;5100197;28;20031;-84
2021/03/15 01:18:32;;;;;;;14.93;6.43;;;6.70;97.20;;;;;;5101484;28;20032;-82
2021/03/15 01:20:58;;;;;;;14.27;6.43;;;6.60;97.10;;;;;;5100082;28;20055;-82
2021/03/15 01:23:23;;;;;;;15.60;7.20;;;6.60;96.80;;;;;;5101483;28;20048;-83
2021/03/15 01:25:49;;;;;;;16.07;7.20;;;6.60;97.00;;;;;;5101150;28;20032;-83
2021/03/15 01:28:17;;;;;;;21.53;8.17;;;6.60;97.00;;;;;;5100504;28;20024;-83
2021/03/15 01:30:44;;;;;;;16.77;7.47;;;6.60;97.10;;;;;;5080712;28;20097;-83
2021/03/15 01:33:11;;;;;;;16.90;7.83;;;6.60;97.10;;;;;;5100148;28;20025;-81
2021/03/15 01:35:38;;;;;;;22.00;8.63;;;6.60;97.10;;;;;;5098901;28;20487;-83
2021/03/15 01:38:07;;;;;;;19.03;8.73;;;6.70;97.10;;;;;;5081062;28;20051;-82
2021/03/15 01:40:38;;;;;;;18.15;8.23;;;6.60;97.20;;;;;;5099201;28;20044;-84
2021/03/15 01:43:04;;;;;;;16.93;8.17;;;6.60;97.10;;;;;;5080598;28;20035;-82
2021/03/15 01:45:31;;;;;;;14.33;6.83;;;6.50;97.10;;;;;;5099762;28;20403;-83
2021/03/15 01:47:56;;;;;;;13.97;5.70;;;6.40;96.70;;;;;;5099611;28;20094;-82
2021/03/15 01:50:22;;;;;;;12.80;5.80;;;6.40;97.00;;;;;;5098499;28;20056;-84
2021/03/15 01:52:51;;;;;;;12.97;5.13;;;6.50;96.90;;;;;;5099469;28;20126;-83
2021/03/15 01:55:18;;;;;;;16.83;5.97;;;6.50;96.80;;;;;;5099421;28;20027;-83
2021/03/15 01:57:46;;;;;;;11.87;5.50;;;6.50;96.90;;;;;;5099162;28;20032;-83
2021/03/15 02:00:14;;;;;;;12.90;6.13;;;6.50;97.20;;;;;;5098585;28;20486;-84
2021/03/15 02:02:42;;;;;;;14.63;6.13;;;6.60;97.00;;;;;;5099535;28;20126;-83
2021/03/15 02:05:09;;;;;;;13.40;6.82;;;6.60;97.20;;;;;;5080069;28;20140;-83
2021/03/15 02:07:35;;;;;;;13.77;6.47;;;6.60;97.20;;;;;;5079738;28;20024;-82
2021/03/15 02:10:01;;;;;;;19.33;7.27;;;6.60;97.10;;;;;;5098025;28;20547;-81
2021/03/15 02:12:38;;;;;;;17.90;7.87;;;6.60;97.30;;;;;;5098169;28;20543;-84
2021/03/15 02:15:23;;;;;;;16.40;8.43;;;6.50;97.20;;;;;;5098207;28;20047;-83
2021/03/15 02:18:30;;;;;;;20.40;9.00;;;6.60;97.40;;;;;;5080178;28;20024;-83
2021/03/15 02:21:15;;;;;;;19.20;8.97;;;6.50;97.50;;;;;;5090645;28;20044;-84
2021/03/15 02:24:03;;;;;;;18.93;7.40;;;6.50;97.50;;;;;;5080048;28;20118;-84
2021/03/15 02:26:56;;;;;;;15.60;8.50;;;6.50;97.80;;;;;;5079861;28;20120;-84
2021/03/15 02:29:36;;;;;;;14.97;7.23;;;6.50;97.80;;;;;;5098833;28;20020;-82
2021/03/15 02:32:16;;;;;;;14.37;6.90;;;6.50;97.80;;;;;;5099261;28;20605;-83
2021/03/15 02:34:57;;;;;;;12.17;5.87;;;6.50;97.70;;;;;;5081360;28;20020;-82
2021/03/15 02:37:27;;;;;;;14.47;7.00;;;6.50;97.80;;;;;;5098847;28;20366;-84
2021/03/15 02:39:57;;;;;;;15.60;6.70;;;6.40;97.70;;;;;;5099217;28;20035;-83
2021/03/15 02:42:24;;;;;;;13.70;5.90;;;6.40;97.90;;;;;;5099299;28;20016;-82
2021/03/15 02:44:54;;;;;;;9.97;4.90;;;6.30;97.90;;;;;;5097212;28;20028;-83
2021/03/15 02:47:25;;;;;;;8.70;5.10;;;6.30;98.00;;;;;;5077398;28;20035;-83
2021/03/15 02:49:57;;;;;;;10.33;5.33;;;6.40;98.10;;;;;;5096136;28;20024;-83
2021/03/15 02:52:25;;;;;;;11.37;5.30;;;6.40;98.10;;;;;;5096612;28;20062;-84
2021/03/15 02:54:54;;;;;;;11.10;5.30;;;6.40;97.90;;;;;;5097070;28;20111;-84
2021/03/15 02:57:21;;;;;;;10.80;4.88;;;6.40;97.70;;;;;;5096717;28;20028;-83
2021/03/15 02:59:49;;;;;;;11.97;5.00;;;6.40;97.70;;;;;;5097672;28;20024;-83
2021/03/15 03:02:16;;;;;;;9.87;4.97;;;6.30;97.70;;;;;;5097693;28;20020;-83
2021/03/15 03:04:45;;;;;;;8.83;4.80;;;6.40;98.10;;;;;;5098757;28;20104;-83
2021/03/15 03:07:12;;;;;;;10.93;5.95;;;6.30;97.90;;;;;;5097409;28;20019;-82
2021/03/15 03:09:39;;;;;;;14.30;5.60;;;6.40;97.90;;;;;;5098081;28;20027;-84
2021/03/15 03:12:06;;;;;;;9.67;4.90;;;6.40;98.20;;;;;;5098931;28;20024;-82
2021/03/15 03:14:34;;;;;;;11.30;5.37;;;6.40;98.10;;;;;;5082562;28;20032;-83
2021/03/15 03:17:01;;;;;;;9.47;4.97;;;6.40;98.20;;;;;;5100630;28;20430;-82
2021/03/15 03:19:28;;;;;;;10.43;4.90;;;6.40;98.20;;;;;;5100457;28;20119;-82
2021/03/15 03:21:55;;;;;;;8.83;4.67;;;6.40;97.80;;;;;;5100174;28;20316;-84
2021/03/15 03:24:23;;;;;;;7.90;4.87;;;6.40;98.00;;;;;;5100983;28;20476;-81
2021/03/15 03:26:50;;;;;;;8.07;4.90;;;6.30;98.00;;;;;;5100442;28;20034;-84
2021/03/15 03:29:16;;;;;;;11.07;5.30;;;6.20;98.00;;;;;;5081730;28;20084;-84
2021/03/15 03:31:44;;;;;;;9.10;5.03;;;6.30;98.30;;;;;;5100696;28;20445;-82
2021/03/15 03:34:11;;;;;;;8.80;5.37;;;6.20;98.20;;;;;;5101236;28;20017;-83
2021/03/15 03:36:37;;;;;;;12.37;5.60;;;6.30;98.40;;;;;;5081299;28;20050;-84
2021/03/15 03:39:08;;;;;;;11.73;5.83;;;6.30;98.30;;;;;;5080548;28;20028;-82
2021/03/15 03:41:34;;;;;;;10.80;5.87;;;6.30;98.50;;;;;;5100546;28;20133;-83
2021/03/15 03:44:00;;;;;;;10.77;5.77;;;6.20;98.30;;;;;;5101383;28;20032;-82
2021/03/15 03:46:25;;;;;;;11.07;6.40;;;6.20;98.60;;;;;;5101494;28;20564;-81
2021/03/15 03:48:51;;;;;;;10.03;6.30;;;6.20;98.40;;;;;;5100521;28;20495;-83
2021/03/15 03:51:24;;;;;;;14.20;6.43;;;6.20;98.50;;;;;;5100777;28;20309;-83
2021/03/15 03:54:01;;;;;;;12.87;6.70;;;6.20;98.60;;;;;;5100649;28;20027;-81
2021/03/15 03:56:37;;;;;;;12.33;6.60;;;6.30;98.50;;;;;;5101133;28;20160;-83
2021/03/15 03:59:04;;;;;;;12.77;6.63;;;6.30;98.30;;;;;;5100753;28;20345;-83
2021/03/15 04:01:37;;;;;;;11.03;6.93;;;6.30;98.20;;;;;;5082020;28;20024;-82
2021/03/15 04:04:06;;;;;;;11.80;7.30;;;6.30;98.10;;;;;;5101660;28;20063;-84
2021/03/15 04:06:35;;;;;;;11.02;7.47;;;6.20;98.40;;;;;;5100735;28;20479;-83
2021/03/15 04:09:03;;;;;;;;;;;6.20;98.40;;;;;;5101318;28;20031;-84
2021/03/15 04:11:33;;;;;;;12.47;7.50;;;6.20;98.30;;;;;;5099873;28;19904;-82
2021/03/15 04:14:02;;;;;;;11.40;6.87;;;6.30;98.50;;;;;;5080193;28;20111;-88
2021/03/15 04:16:35;;;;;;;12.25;7.15;;;6.30;98.20;;;;;;5078669;28;20573;-83
2021/03/15 04:19:03;;;;;;;10.03;6.57;;;6.30;98.20;;;;;;5097568;28;20106;-85
2021/03/15 04:21:32;;;;;;;11.20;6.57;;;6.20;98.20;;;;;;5082061;28;20066;-82
2021/03/15 04:23:59;;;;;;;11.02;6.03;;;6.20;98.80;;;;;;5082774;28;20024;-83
2021/03/15 04:26:26;;;;;;;10.47;5.57;;;6.10;98.50;;;;;;5083666;28;20119;-83
2021/03/15 04:28:56;;;;;;;10.13;5.33;;;6.00;98.60;;;;;;5100698;28;20642;-83
2021/03/15 04:31:23;;;;;;;8.87;5.83;;;6.00;98.70;;;;;;5099924;28;20039;-83
2021/03/15 04:33:51;;;;;;;11.27;6.83;;;5.90;98.90;;;;;;5098634;28;20020;-84
2021/03/15 04:36:18;;;;;;;11.67;6.43;;;6.20;99.90;;;;;;5078251;28;20024;-84
2021/03/15 04:38:45;;;;;;;14.20;6.40;;;6.50;99.90;;;;;;5076670;28;20028;-83
2021/03/15 04:41:12;;;;;;;10.13;6.23;;;6.60;98.70;;;;;;5093942;28;20035;-80
2021/03/15 04:43:38;;;;;;;9.60;5.97;;;6.80;99.30;;;;;;5076628;28;20042;-81
2021/03/15 04:46:06;;;;;;;13.90;8.00;;;6.60;98.20;;;;;;5094248;28;20134;-80
2021/03/15 04:48:33;;;;;;;12.57;6.70;;;6.70;97.50;;;;;;5076333;28;20263;-81
2021/03/15 04:51:05;;;;;;;14.53;6.97;;;6.70;97.20;;;;;;5093967;28;20020;-80
2021/03/15 04:53:36;;;;;;;18.23;6.90;;;6.70;96.80;;;;;;5094472;28;20133;-83
2021/03/15 04:56:06;;;;;;;14.70;5.83;;;6.70;95.90;;;;;;5066068;28;20022;-81
2021/03/15 04:58:36;;;;;;;11.77;4.60;;;6.70;96.10;;;;;;5094808;28;20039;-81
2021/03/15 05:01:02;;;;;;;;;;;6.70;96.30;;;;;;5094074;28;20028;-81
2021/03/15 05:03:30;;;;;;;13.23;4.70;;;6.70;96.70;;;;;;5094289;28;19904;-81
2021/03/15 05:05:57;;;;;;;7.87;3.30;;;6.70;96.70;;;;;;5094359;28;20097;-83
2021/03/15 05:08:30;;;;;;;6.83;2.63;;;6.70;96.30;;;;;;5094861;28;20115;-83
2021/03/15 05:11:00;;;;;;;5.70;2.90;;;6.60;96.20;;;;;;5093823;28;20506;-83
2021/03/15 05:13:26;;;;;;;5.60;2.90;;;6.60;96.20;;;;;;5075794;28;20031;-81
2021/03/15 05:15:52;;;;;;;7.13;3.23;;;6.60;95.80;;;;;;5094436;28;20042;-82
2021/03/15 05:18:18;;;;;;;8.47;3.17;;;6.60;95.90;;;;;;5087191;28;20029;-83
2021/03/15 05:20:46;;;;;;;7.23;3.00;;;6.70;96.40;;;;;;5073354;28;20124;-83
2021/03/15 05:23:14;;;;;;;6.00;3.23;;;6.60;96.20;;;;;;5073655;28;20029;-82
2021/03/15 05:25:43;;;;;;;6.07;3.57;;;6.60;96.20;;;;;;5073726;28;20031;-82
2021/03/15 05:28:11;;;;;;;7.13;3.92;;;6.50;96.20;;;;;;5074225;28;20516;-82
2021/03/15 05:30:39;;;;;;;6.53;3.87;;;6.50;96.70;;;;;;5078109;28;20078;-82
2021/03/15 05:33:12;;;;;;;6.70;3.63;;;6.40;96.70;;;;;;5087976;28;20020;-83
2021/03/15 05:35:40;;;;;;;8.40;4.10;;;6.30;97.20;;;;;;5084371;28;20054;-84
2021/03/15 05:38:06;;;;;;;8.30;4.10;;;6.20;97.10;;;;;;5094220;28;20024;-82
2021/03/15 05:40:34;;;;;;;7.97;3.90;;;6.20;97.30;;;;;;5093593;28;20032;-82
2021/03/15 05:43:14;;;;;;;8.07;3.43;;;6.20;97.70;;;;;;5093795;28;20035;-81
2021/03/15 05:45:58;;;;;;;8.00;4.33;;;6.10;97.70;;;;;;5077443;28;20035;-85
2021/03/15 05:48:33;;;;;;;9.80;4.00;;;6.10;97.80;;;;;;5093537;28;20027;-83
2021/03/15 05:51:29;;;;;;;10.67;4.67;;;6.10;97.90;;;;;;5092967;28;20024;-85
2021/03/15 05:54:13;;;;;;;12.50;5.27;;;6.10;97.70;;;;;;5075768;28;20020;-83
2021/03/15 05:57:16;;;;;;;14.83;5.53;;;6.10;98.30;;;;;;5074700;28;20066;-80
2021/03/15 06:00:02;;;;;;;11.40;5.83;;;6.10;98.10;;;;;;5092556;28;20035;-81
2021/03/15 06:02:46;;;;;;;10.77;5.10;;;6.00;98.30;;;;;;5093492;28;20111;-81
2021/03/15 06:05:21;;;;;;;10.30;5.17;;;6.00;98.40;;;;;;5074709;28;20160;-80
2021/03/15 06:07:49;;;;;;;11.87;5.90;;;6.00;98.20;;;;;;5092749;28;20024;-82
2021/03/15 06:10:21;;;;;;;10.52;5.65;;;6.00;98.30;;;;;;5095328;28;20020;-85
2021/03/15 06:12:53;;;;;;;12.07;5.20;;;5.90;98.20;;;;;;5095199;28;20024;-84
2021/03/15 06:15:31;;;;;;;10.43;5.70;;;5.90;98.30;;;;;;5074529;28;20077;-80
2021/03/15 06:17:59;;;;;;;11.23;5.63;;;5.90;98.40;;;;;;5090543;28;20100;-84
2021/03/15 06:20:25;;;;;;;12.07;5.57;;;5.90;98.40;;;;;;5090940;28;20130;-85
2021/03/15 06:22:51;;;;;;;11.37;5.37;;;5.90;98.30;;;;;;5074278;28;20510;-85
2021/03/15 06:25:17;;;;;;;11.00;5.40;;;5.90;98.50;;;;;;5094097;28;20457;-85
2021/03/15 06:27:45;;;;;;;8.87;5.10;;;6.00;98.30;;;;;;5092870;28;20406;-86
2021/03/15 06:30:11;;;;;;;11.23;5.10;;;6.00;98.40;;;;;;5092820;28;20024;-84
2021/03/15 06:32:37;;;;;;;10.27;5.13;;;6.00;98.40;;;;;;5074748;28;20016;-81
2021/03/15 06:35:03;;;;;;;11.13;5.60;;;6.00;98.30;;;;;;5094022;28;20114;-84
2021/03/15 06:37:29;;;;;;;9.83;5.50;;;6.00;98.50;;;;;;5076051;28;20028;-83
2021/03/15 06:39:56;;;;;;;10.03;5.47;;;6.00;98.40;;;;;;5093767;28;20128;-85
2021/03/15 06:42:27;;;;;;;13.60;6.40;;;6.00;98.10;;;;;;5093998;28;20032;-86
2021/03/15 06:45:03;;;;;;;13.67;5.60;;;6.10;98.90;;;;;;5093659;28;20077;-85
2021/03/15 06:48:19;;;;;;;13.53;6.43;;;6.10;98.80;;;;;;5076109;28;20016;-83
2021/03/15 06:51:05;;;;;;;9.97;5.63;;;6.10;99.90;;;;;;5077250;28;20046;-82
2021/03/15 06:53:43;;;;;;;12.13;5.77;;;5.90;98.60;;;;;;5093528;28;20473;-80
2021/03/15 06:56:14;;;;;;;10.93;5.73;;;6.00;98.80;;;;;;5092504;28;20469;-81
2021/03/15 06:58:54;;;;;;;13.03;5.70;;;6.10;99.00;;;;;;5075166;28;20048;-80
2021/03/15 07:01:22;;;;;;;10.40;5.73;;;6.10;98.70;;;;;;5092628;28;20036;-80
2021/03/15 07:03:50;;;;;;;10.13;5.77;;;6.10;98.50;;;;;;5092666;28;20024;-81
2021/03/15 07:06:19;;;;;;;13.50;6.13;;;6.10;98.40;;;;;;5092208;28;20061;-81
2021/03/15 07:08:45;;;;;;;10.52;5.93;;;6.10;98.50;;;;;;5085827;28;20028;-79
2021/03/15 07:11:24;;;;;;;14.37;6.47;;;6.10;98.50;;;;;;5091241;28;20024;-80
2021/03/15 07:13:51;;;;;;;13.57;5.93;;;6.20;98.40;;;;;;5092769;28;20025;-81
2021/03/15 07:16:31;;;;;;;15.77;6.73;;;6.30;98.30;;;;;;5091428;28;20127;-81
2021/03/15 07:19:22;;;;;;;16.37;7.17;;;6.30;98.10;;;;;;5091329;28;20032;-80
2021/03/15 07:21:47;;;;;;;14.30;7.17;;;6.20;98.10;;;;;;5073464;28;20039;-81
2021/03/15 07:24:13;;;;;;;15.83;6.57;;;6.20;97.90;;;;;;5092204;28;20024;-83
2021/03/15 07:26:46;;;;;;;16.17;7.03;;;6.20;97.90;;;;;;5099305;28;20036;-85
2021/03/15 07:29:13;;;;;;;18.13;7.20;;;6.20;97.80;;;;;;5102603;28;20190;-86
2021/03/15 07:31:42;;;;;;;13.67;7.40;;;6.30;97.60;;;;;;5078667;28;20024;-85
2021/03/15 07:34:13;;;;;;;13.75;7.07;;;6.30;97.50;;;;;;5073402;28;20451;-79
2021/03/15 07:36:59;;;;;;;18.83;6.87;;;6.30;97.20;;;;;;5077119;28;20032;-83
2021/03/15 07:39:28;;;;;;;15.43;6.83;;;6.40;97.50;;;;;;5091308;28;20053;-81
2021/03/15 07:41:56;;;;;;;14.93;6.50;;;6.30;97.30;;;;;;5091449;28;20024;-81
2021/03/15 07:44:28;;;;;;;14.77;7.43;;;6.40;97.50;;;;;;5092617;28;20028;-83
2021/03/15 07:46:59;;;;;;;13.70;6.17;;;6.40;97.70;;;;;;5073248;28;20097;-83
2021/03/15 07:49:34;;;;;;;19.23;7.10;;;6.40;97.40;;;;;;5073412;28;20024;-80
2021/03/15 07:52:04;;;;;;;16.60;7.33;;;6.40;97.40;;;;;;5090876;28;20017;-80
2021/03/15 07:54:38;;;;;;;12.33;6.30;;;6.40;97.70;;;;;;5093680;28;20821;-85
2021/03/15 07:57:10;;;;;;;15.07;6.53;;;6.40;97.40;;;;;;5076185;28;20129;-86
2021/03/15 07:59:36;;;;;;;13.90;6.47;;;6.40;97.30;;;;;;5075048;28;20415;-85
2021/03/15 08:02:03;;;;;;;14.03;6.37;;;6.40;97.50;;;;;;5076443;28;20032;-88
2021/03/15 08:04:30;;;;;;;17.23;6.40;;;6.40;97.40;;;;;;5076516;28;20078;-87
2021/03/15 08:06:57;;;;;;;14.57;5.60;;;6.50;97.30;;;;;;5077184;28;20430;-84
2021/03/15 08:09:23;;;;;;;14.20;4.70;;;6.50;96.90;;;;;;5078181;28;20035;-85
2021/03/15 08:11:52;;;;;;;13.33;4.20;;;6.40;96.00;;;;;;5095066;28;20016;-83
2021/03/15 08:14:20;;;;;;;17.55;5.38;;;6.40;96.10;;;;;;5077073;28;20028;-87
2021/03/15 08:16:46;;;;;;;14.50;5.37;;;6.40;96.40;;;;;;5078228;28;20085;-79
2021/03/15 08:19:15;;;;;;;12.43;4.77;;;6.50;97.50;;;;;;5097213;28;20031;-83
2021/03/15 08:21:43;;;;;;;12.52;4.63;;;6.50;96.50;;;;;;5079899;28;20021;-86
2021/03/15 08:24:13;;;;;;;14.43;4.80;;;6.40;96.00;;;;;;5079550;28;20476;-85
2021/03/15 08:26:41;;;;;;;12.70;4.57;;;6.40;96.00;;;;;;5083315;28;20028;-84
2021/03/15 08:29:13;;;;;;;12.17;4.80;;;6.50;96.20;;;;;;5099796;28;20016;-85
2021/03/15 08:31:49;;;;;;;13.07;4.60;;;6.50;95.60;;;;;;5080576;28;20031;-85
2021/03/15 08:34:16;;;;;;;15.03;5.57;;;6.50;95.40;;;;;;5077199;28;20535;-86
2021/03/15 08:57:30;;;;;;;13.27;5.67;;;6.70;94.60;;;;;;5033204;28;20044;-87
2021/03/15 08:59:57;;;;;;;14.33;4.93;;;6.70;94.80;;;;;;5062954;28;20126;-86
2021/03/15 09:02:38;;;;;;;12.93;4.23;;;6.80;95.10;;;;;;5079794;28;20032;-87
2021/03/15 09:05:43;;;;;;;9.93;4.80;;;6.70;94.30;;;;;;5079433;28;20024;-87
2021/03/15 09:08:08;;;;;;;18.63;4.63;;;6.80;94.70;;;;;;5033391;28;20029;-86
2021/03/15 09:10:37;;;;;;;21.60;5.10;;;6.80;94.70;;;;;;5066200;28;20084;-86
2021/03/15 09:13:23;;;;;;;18.10;4.33;;;6.90;94.10;;;;;;5096620;28;20024;-86
2021/03/15 09:16:08;;;;;;;13.83;3.60;;;6.80;94.50;;;;;;5096258;28;20726;-87
2021/03/15 09:18:48;;;;;;;13.60;2.80;;;6.80;93.90;;;;;;5096217;28;20381;-86
2021/03/15 09:21:23;;;;;;;11.23;3.07;;;6.80;93.80;;;;;;5095139;28;20020;-85
2021/03/15 09:23:49;;;;;;;13.60;3.70;;;6.70;94.40;;;;;;5076243;28;20039;-85
2021/03/15 09:26:33;;;;;;;14.73;3.63;;;6.80;94.30;;;;;;5094125;28;20081;-86
2021/03/15 09:28:59;;;;;;;12.03;3.60;;;6.80;94.40;;;;;;5094405;28;20203;-85
2021/03/15 09:31:25;;;;;;;13.33;3.27;;;6.90;94.10;;;;;;5094021;28;20661;-86
2021/03/15 09:33:50;;;;;;;14.50;3.30;;;7.00;93.60;;;;;;5075950;28;20016;-85
2021/03/15 09:36:31;;;;;;;11.87;3.27;;;7.00;93.80;;;;;;5093858;28;20020;-85
2021/03/15 09:38:58;;;;;;;14.53;3.33;;;7.10;93.10;;;;;;5075422;28;20024;-86
2021/03/15 09:41:24;;;;;;;10.37;3.10;;;7.20;93.40;;;;;;5076041;28;20024;-85
2021/03/15 09:43:51;;;;;;;16.50;3.33;;;7.40;93.20;;;;;;5075632;28;20035;-85
2021/03/15 09:46:23;;;;;;;8.80;2.20;;;7.40;91.20;;;;;;5093978;28;20099;-85
2021/03/15 09:48:55;;;;;;;8.53;2.17;;;7.40;91.00;;;;;;5093774;28;20384;-86
2021/03/15 09:51:25;;;;;;;10.23;2.27;;;7.40;90.10;;;;;;5094047;28;20480;-86
2021/03/15 09:53:53;;;;;;;7.90;2.07;;;7.40;90.50;;;;;;5075561;28;20024;-85
2021/03/15 09:56:19;;;;;;;7.53;1.93;;;7.40;91.10;;;;;;5075320;28;20499;-86
2021/03/15 09:58:45;;;;;;;11.73;2.30;;;7.30;90.00;;;;;;5093752;28;20032;-85
2021/03/15 10:01:29;;;;;;;11.47;1.93;;;7.20;91.40;;;;;;5093381;28;20020;-85
2021/03/15 10:03:55;;;;;;;6.77;2.07;;;7.10;91.20;;;;;;5075146;28;20472;-85
2021/03/15 10:06:25;;;;;;;9.20;2.43;;;7.20;91.30;;;;;;5075065;28;20499;-86
2021/03/15 10:08:53;;;;;;;10.93;2.20;;;7.20;91.10;;;;;;5093980;28;20048;-86
2021/03/15 10:11:20;;;;;;;12.20;1.87;;;7.30;90.80;;;;;;5075018;28;20107;-85
2021/03/15 10:14:03;;;;;;;9.07;1.73;;;7.40;90.30;;;;;;5093364;28;20028;-86
2021/03/15 10:16:29;;;;;;;8.53;1.70;;;7.50;90.30;;;;;;5075326;28;20119;-85
2021/03/15 10:18:54;;;;;;;11.77;2.07;;;7.50;88.20;;;;;;5092992;28;20118;-85
2021/03/15 10:21:28;;;;;;;9.80;1.87;;;7.50;88.60;;;;;;5074417;28;20119;-85
2021/03/15 10:23:53;;;;;;;9.77;2.17;;;7.40;88.10;;;;;;5093586;28;20024;-85
2021/03/15 10:26:19;;;;;;;5.60;1.50;;;7.50;89.20;;;;;;5074935;28;20428;-85
2021/03/15 10:28:50;;;;;;;13.20;1.90;;;7.50;88.50;;;;;;5080231;28;20052;-85
2021/03/15 10:31:20;;;;;;;16.03;2.50;;;7.50;89.70;;;;;;5099742;28;20107;-85
2021/03/15 10:33:48;;;;;;;12.57;2.20;;;7.60;90.50;;;;;;5080359;28;20043;-85
2021/03/15 10:36:25;;;;;;;12.00;2.67;;;7.70;89.70;;;;;;5079566;28;20020;-86
2021/03/15 10:38:51;;;;;;;10.10;1.70;;;7.70;88.60;;;;;;5096185;28;20047;-85
2021/03/15 10:41:17;;;;;;;12.73;2.00;;;7.70;88.90;;;;;;5077949;28;20024;-85
2021/03/15 10:43:44;;;;;;;13.70;2.37;;;7.80;87.70;;;;;;5096054;28;20473;-85
2021/03/15 10:46:18;;;;;;;12.37;1.90;;;7.80;86.70;;;;;;5077632;28;20020;-86
2021/03/15 10:48:45;;;;;;;9.77;1.50;;;7.90;86.60;;;;;;5096118;28;20039;-86
2021/03/15 10:51:10;;;;;;;12.43;1.60;;;8.00;87.20;;;;;;5077108;28;20544;-86
2021/03/15 10:53:48;;;;;;;10.37;1.73;;;7.90;86.20;;;;;;5076656;28;20101;-86
2021/03/15 10:56:18;;;;;;;11.93;1.80;;;7.90;86.30;;;;;;5075325;28;20388;-85
2021/03/15 10:58:44;;;;;;;10.07;1.80;;;7.90;86.50;;;;;;5092802;28;20032;-85
2021/03/15 11:01:11;;;;;;;6.90;1.40;;;7.80;86.90;;;;;;5092863;28;20031;-85
2021/03/15 11:03:37;;;;;;;6.83;1.57;;;7.90;87.60;;;;;;5092605;28;20024;-85
2021/03/15 11:06:03;;;;;;;8.37;1.33;;;7.90;86.00;;;;;;5078040;28;20118;-87
2021/03/15 11:08:29;;;;;;;12.20;1.60;;;7.90;85.20;;;;;;5097999;28;20101;-86
2021/03/15 11:10:54;;;;;;;8.77;1.20;;;7.90;84.30;;;;;;5079771;28;20027;-86
2021/03/15 11:55:03;;;;;;;8.20;1.42;;;7.80;90.00;;;;;;5100310;28;20031;-87
2021/03/15 11:57:28;;;;;;;9.10;1.93;;;7.90;87.50;;;;;;5081519;28;20024;-87
2021/03/15 11:59:54;;;;;;;7.57;1.30;;;8.00;87.40;;;;;;5081338;28;20016;-86
2021/03/15 12:02:20;;;;;;;5.03;0.90;;;8.00;85.20;;;;;;5082168;28;20016;-87
2021/03/15 12:04:45;;;;;;;5.53;1.10;;;8.00;85.30;;;;;;5100028;28;20020;-86
2021/03/15 12:07:11;;;;;;;4.73;0.70;;;8.10;85.70;;;;;;5099416;28;20036;-86
2021/03/15 12:09:36;;;;;;;3.47;0.90;;;8.10;86.10;;;;;;5081466;28;20020;-86
2021/03/15 12:12:03;;;;;;;6.70;1.00;;;8.20;84.40;;;;;;5081800;28;20499;-86
2021/03/15 12:14:28;;;;;;;4.93;1.17;;;8.20;83.10;;;;;;5099429;28;20053;-86
2021/03/15 12:16:54;;;;;;;7.20;1.13;;;8.20;83.30;;;;;;5082315;28;20054;-86
2021/03/15 12:19:19;;;;;;;7.93;1.20;;;8.20;84.00;;;;;;5101317;28;20055;-87
2021/03/15 12:21:45;;;;;;;8.77;1.20;;;8.30;84.10;;;;;;5084227;28;20358;-86
2021/03/15 12:24:11;;;;;;;7.43;1.03;;;8.30;84.10;;;;;;5083964;28;20079;-87
2021/03/15 12:26:37;;;;;;;7.53;1.00;;;8.30;83.70;;;;;;5081379;28;20050;-87
2021/03/15 12:29:03;;;;;;;4.90;0.97;;;8.40;84.20;;;;;;5098889;28;20036;-87
2021/03/15 12:31:49;;;;;;;8.17;1.20;;;8.40;82.60;;;;;;5101047;28;20024;-87
2021/03/15 12:34:14;;;;;;;6.43;1.27;;;8.30;87.00;;;;;;5081737;28;20052;-87
2021/03/15 12:36:40;;;;;;;5.37;1.10;;;8.10;90.60;;;;;;5082006;28;20039;-85
2021/03/15 12:39:06;;;;;;;6.37;1.30;;;7.90;92.40;;;;;;5099221;28;20035;-87
2021/03/15 12:41:32;;;;;;;5.57;1.40;;;7.70;92.90;;;;;;5098651;28;20023;-87
2021/03/15 12:43:58;;;;;;;7.37;1.10;;;7.80;93.20;;;;;;5079973;28;20103;-86
2021/03/15 12:46:23;;;;;;;7.70;1.43;;;7.80;92.90;;;;;;5080891;28;20049;-86
2021/03/15 12:48:49;;;;;;;5.70;1.20;;;7.90;91.60;;;;;;5082003;28;20024;-86
2021/03/15 12:51:15;;;;;;;10.80;1.77;;;8.00;87.90;;;;;;5080865;28;20035;-86
2021/03/15 12:53:40;;;;;;;8.97;1.33;;;8.10;87.80;;;;;;5081441;28;20028;-86
2021/03/15 12:56:06;;;;;;;5.50;1.10;;;8.10;84.80;;;;;;5082648;28;20046;-86
2021/03/15 12:58:32;;;;;;;7.70;1.43;;;8.10;85.80;;;;;;5099400;28;20109;-86
2021/03/15 13:00:59;;;;;;;13.00;1.57;;;8.00;86.00;;;;;;5082082;28;20501;-86
2021/03/15 13:03:25;;;;;;;4.83;1.00;;;8.00;89.70;;;;;;5081486;28;20549;-87
2021/03/15 13:05:51;;;;;;;7.27;1.20;;;7.80;91.40;;;;;;5082786;28;20110;-87
2021/03/15 13:08:16;;;;;;;6.37;1.13;;;7.50;93.20;;;;;;5082104;28;20021;-86
2021/03/15 13:10:42;;;;;;;5.60;0.93;;;7.20;94.30;;;;;;5082770;28;20062;-86
2021/03/15 13:13:08;;;;;;;9.47;1.30;;;7.20;95.00;;;;;;5073013;22;20029;-85
2021/03/15 13:15:34;;;;;;;8.57;1.50;;;7.10;94.30;;;;;;5022507;28;20052;-86
2021/03/15 13:18:01;;;;;;;5.43;1.10;;;7.20;94.40;;;;;;5016637;28;20029;-86
2021/03/15 13:20:27;;;;;;;4.23;0.90;;;7.20;94.20;;;;;;5016154;28;20052;-86
2021/03/15 13:22:53;;;;;;;8.27;1.30;;;7.30;93.80;;;;;;5016717;28;20470;-84
2021/03/15 13:25:19;;;;;;;5.37;1.77;;;7.30;93.50;;;;;;5016478;28;20029;-84
2021/03/15 13:27:44;;;;;;;8.87;1.40;;;7.40;93.90;;;;;;5034625;28;20026;-84
2021/03/15 13:30:12;;;;;;;7.73;1.20;;;7.50;93.00;;;;;;5032802;28;20026;-84
2021/03/15 13:32:38;;;;;;;9.20;1.90;;;7.60;93.00;;;;;;5034331;28;20025;-84
2021/03/15 13:35:05;;;;;;;6.83;1.20;;;7.70;93.60;;;;;;5016580;28;20025;-84
2021/03/15 13:37:31;;;;;;;8.13;1.40;;;7.70;92.70;;;;;;5016311;28;20032;-84
2021/03/15 13:39:57;;;;;;;9.77;1.33;;;7.60;92.80;;;;;;5034681;28;20022;-84
2021/03/15 13:42:23;;;;;;;9.43;1.80;;;7.60;93.20;;;;;;5035255;28;20396;-84
2021/03/15 13:44:49;;;;;;;7.20;1.37;;;7.50;94.30;;;;;;5017776;28;20021;-85
2021/03/15 13:47:16;;;;;;;9.00;1.57;;;7.20;95.80;;;;;;5018491;28;20029;-85
2021/03/15 13:49:43;;;;;;;9.87;1.63;;;7.10;96.10;;;;;;5035026;28;20064;-86
2021/03/15 13:52:08;;;;;;;9.00;1.70;;;7.00;95.90;;;;;;5021830;28;20032;-84
2021/03/15 13:54:35;;;;;;;6.70;1.30;;;7.00;96.00;;;;;;5023928;28;20025;-84
2021/03/15 13:57:01;;;;;;;7.00;1.87;;;7.10;96.30;;;;;;5023845;28;20045;-83
2021/03/15 13:59:27;;;;;;;12.13;2.03;;;7.20;96.80;;;;;;5019190;28;20026;-84
2021/03/15 14:01:53;;;;;;;9.63;1.63;;;7.30;96.20;;;;;;5036232;28;20031;-84
2021/03/15 14:04:18;;;;;;;6.83;1.30;;;7.30;95.90;;;;;;5034590;28;20109;-84